Gonvick, Minnesota
Current Conditions -  °F | °C
As of 10:35 AM on Wednesday 22 Oct 2014 (Local Time) from KFSE Reporting Station
Clear Clear  
Wind Chill: 57°   Ceiling: Unl
Heat Index: 57°   Visibility: 10mi
Dew Point: 41°   Wind: 24mph
Humidity: 55%   Direction: 160°SSE
Pressure: 29.9"   Gusts: 35mph
Location:  47.74°N, 95.51°W
Report Text: KFSE 221535Z AUTO 16021G30KT 10SM CLR 14/05 A2990 RMK AO2 LTG DSNT N
Loading
Personal Weather Stations






























Interactive Weather Map
Tropical Storm Tracking
New forecast layout! Learn more

10-Day Weather Forecast

Advertisements
Track Severe Weather on mobile